createdAt,value
2022-10-23T00:01:34.232Z,11.63
2022-10-23T00:04:07.665Z,8.77
2022-10-23T00:06:36.011Z,9.23
2022-10-23T00:09:07.163Z,15.15
2022-10-23T00:11:35.687Z,14.10
2022-10-23T00:14:06.625Z,13.68
2022-10-23T00:16:34.779Z,10.43
2022-10-23T00:19:02.078Z,12.32
2022-10-23T00:21:29.375Z,13.75
2022-10-23T00:23:56.875Z,10.52
2022-10-23T00:26:24.283Z,10.98
2022-10-23T00:28:53.580Z,8.50
2022-10-23T00:31:22.164Z,8.95
2022-10-23T00:33:49.913Z,10.15
2022-10-23T00:36:18.881Z,7.53
2022-10-23T00:38:47.503Z,11.82
2022-10-23T00:41:18.659Z,8.73
2022-10-23T00:44:06.215Z,7.97
2022-10-23T00:46:34.473Z,10.15
2022-10-23T00:49:03.470Z,10.23
2022-10-23T00:51:38.395Z,8.95
2022-10-23T00:57:00.612Z,10.70
2022-10-23T00:59:29.392Z,9.80
2022-10-23T01:01:56.915Z,12.52
2022-10-23T01:04:25.537Z,9.35
2022-10-23T01:07:17.033Z,12.45
2022-10-23T01:10:14.391Z,9.25
2022-10-23T01:15:47.016Z,8.45
2022-10-23T01:18:38.700Z,13.60
2022-10-23T01:21:53.539Z,9.40
2022-10-23T01:24:37.637Z,14.02
2022-10-23T01:27:13.869Z,11.40
2022-10-23T01:29:50.649Z,10.63
2022-10-23T01:32:48.535Z,9.88
2022-10-23T01:35:26.629Z,10.32
2022-10-23T01:38:18.325Z,11.15
2022-10-23T01:41:13.743Z,8.70
2022-10-23T01:43:56.927Z,9.27
2022-10-23T01:46:28.429Z,8.05
2022-10-23T01:48:58.672Z,9.32
2022-10-23T01:51:29.199Z,13.02
2022-10-23T01:54:06.474Z,9.45
2022-10-23T01:56:38.182Z,9.27
2022-10-23T01:59:11.007Z,8.25
2022-10-23T02:01:44.704Z,8.55
2022-10-23T02:04:18.009Z,11.77
2022-10-23T02:06:45.981Z,10.13
2022-10-23T02:09:13.353Z,10.45
2022-10-23T02:11:51.633Z,8.85
2022-10-23T02:14:52.161Z,7.60
2022-10-23T02:17:51.269Z,8.48
2022-10-23T02:20:26.628Z,9.75
2022-10-23T02:23:19.985Z,7.82
2022-10-23T02:25:53.864Z,9.85
2022-10-23T02:28:28.193Z,9.48
2022-10-23T02:31:00.711Z,8.88
2022-10-23T02:33:31.211Z,6.28
2022-10-23T02:35:58.648Z,11.23
2022-10-23T02:38:43.498Z,6.45
2022-10-23T02:41:29.911Z,16.70
2022-10-23T02:44:41.863Z,8.15
2022-10-23T02:47:37.249Z,7.57
2022-10-23T02:50:24.848Z,10.30
2022-10-23T02:53:16.638Z,7.90
2022-10-23T02:56:29.450Z,9.80
2022-10-23T02:59:25.054Z,7.38
2022-10-23T03:02:03.113Z,7.68
2022-10-23T03:04:32.964Z,8.73
2022-10-23T03:07:00.468Z,13.43
2022-10-23T03:09:28.874Z,8.63
2022-10-23T03:11:56.568Z,11.88
2022-10-23T03:14:25.149Z,6.38
2022-10-23T03:16:52.680Z,10.05
2022-10-23T03:19:20.030Z,6.70
2022-10-23T03:21:47.346Z,9.23
2022-10-23T03:24:14.724Z,6.90
2022-10-23T03:26:43.991Z,9.35
2022-10-23T03:29:11.352Z,7.53
2022-10-23T03:31:44.898Z,10.07
2022-10-23T03:34:13.464Z,9.27
2022-10-23T03:36:41.558Z,7.65
2022-10-23T03:39:10.021Z,6.93
2022-10-23T03:41:37.245Z,11.43
2022-10-23T03:46:37.269Z,6.18
2022-10-23T03:49:05.910Z,6.18
2022-10-23T03:51:33.746Z,7.68
2022-10-23T03:54:01.218Z,4.55
2022-10-23T03:56:28.596Z,5.80
2022-10-23T03:58:55.831Z,7.75
2022-10-23T04:01:26.782Z,6.53
2022-10-23T04:03:54.841Z,6.32
2022-10-23T04:06:24.765Z,5.45
2022-10-23T04:08:56.260Z,8.90
2022-10-23T04:11:23.569Z,5.63
2022-10-23T04:13:50.859Z,6.47
2022-10-23T04:16:18.462Z,7.75
2022-10-23T04:18:46.064Z,8.50
2022-10-23T04:21:13.370Z,8.75
2022-10-23T04:23:40.726Z,5.18
2022-10-23T04:28:43.301Z,6.07
2022-10-23T04:31:10.799Z,8.68
2022-10-23T04:33:41.219Z,9.23
2022-10-23T04:36:09.410Z,6.35
2022-10-23T04:38:36.705Z,6.40
2022-10-23T04:41:06.586Z,6.50
2022-10-23T04:43:34.681Z,9.98
2022-10-23T04:46:03.868Z,6.55
2022-10-23T04:48:31.181Z,7.28
2022-10-23T04:51:17.284Z,7.70
2022-10-23T04:54:03.038Z,8.02
2022-10-23T04:56:47.283Z,10.27
2022-10-23T04:59:21.184Z,7.60
2022-10-23T05:01:49.269Z,8.65
2022-10-23T05:04:18.017Z,8.95
2022-10-23T05:07:04.119Z,6.43
2022-10-23T05:09:54.123Z,10.77
2022-10-23T05:12:50.370Z,6.25
2022-10-23T05:15:18.100Z,10.82
2022-10-23T05:17:48.406Z,6.40
2022-10-23T05:20:20.422Z,8.38
2022-10-23T05:22:51.469Z,5.95
2022-10-23T05:25:21.468Z,6.40
2022-10-23T05:27:53.296Z,6.40
2022-10-23T05:30:21.823Z,6.63
2022-10-23T05:32:49.508Z,8.23
2022-10-23T05:35:23.496Z,6.10
2022-10-23T05:37:53.998Z,7.68
2022-10-23T05:40:24.446Z,11.70
2022-10-23T05:42:58.336Z,6.55
2022-10-23T05:45:40.856Z,6.68
2022-10-23T05:51:23.661Z,7.93
2022-10-23T05:54:20.158Z,5.82
2022-10-23T05:59:48.792Z,14.65
2022-10-23T06:02:19.279Z,8.77
2022-10-23T06:04:54.229Z,9.02
2022-10-23T06:07:39.814Z,10.40
2022-10-23T06:10:08.387Z,11.93
2022-10-23T06:12:40.278Z,8.10
2022-10-23T06:15:11.144Z,8.27
2022-10-23T06:18:07.703Z,6.20
2022-10-23T06:20:39.693Z,6.80
2022-10-23T06:23:21.379Z,9.02
2022-10-23T06:26:12.635Z,9.55
2022-10-23T06:28:56.182Z,10.10
2022-10-23T06:31:28.136Z,11.75
2022-10-23T06:33:58.250Z,8.75
2022-10-23T06:36:26.539Z,8.15
2022-10-23T06:41:50.678Z,6.85
2022-10-23T06:44:37.878Z,7.20
2022-10-23T06:47:14.586Z,6.47
2022-10-23T06:50:11.757Z,9.65
2022-10-23T06:55:17.544Z,14.23
2022-10-23T06:57:45.288Z,16.27
2022-10-23T07:00:13.859Z,17.35
2022-10-23T07:02:49.874Z,8.73
2022-10-23T07:05:17.750Z,11.93
2022-10-23T07:07:45.264Z,8.30
2022-10-23T07:10:16.362Z,9.50
2022-10-23T07:12:49.097Z,10.00
2022-10-23T07:15:52.075Z,6.97
2022-10-23T07:18:25.338Z,9.65
2022-10-23T07:21:11.088Z,8.88
2022-10-23T07:23:40.534Z,13.23
2022-10-23T07:26:17.076Z,9.68
2022-10-23T07:28:47.849Z,10.52
2022-10-23T07:31:23.056Z,10.40
2022-10-23T07:34:11.722Z,11.32
2022-10-23T07:36:40.520Z,8.77
2022-10-23T07:39:07.949Z,9.07
2022-10-23T07:41:42.033Z,14.50
2022-10-23T07:44:09.431Z,12.75
2022-10-23T07:46:36.887Z,12.13
2022-10-23T07:49:04.463Z,10.43
2022-10-23T07:51:32.063Z,12.23
2022-10-23T07:54:00.548Z,12.15
2022-10-23T07:56:50.911Z,14.13
2022-10-23T07:59:22.035Z,10.68
2022-10-23T08:01:55.794Z,11.90
2022-10-23T08:04:28.655Z,12.68
2022-10-23T08:07:10.404Z,11.85
2022-10-23T08:09:41.993Z,10.77
2022-10-23T08:12:10.191Z,8.98
2022-10-23T08:14:37.512Z,12.75
2022-10-23T08:17:10.136Z,15.70
2022-10-23T08:20:01.375Z,11.43
2022-10-23T08:22:37.162Z,12.27
2022-10-23T08:25:05.068Z,19.02
2022-10-23T08:27:32.430Z,20.83
2022-10-23T08:29:59.786Z,9.45
2022-10-23T08:32:31.308Z,13.15
2022-10-23T08:35:00.406Z,9.00
2022-10-23T08:37:30.950Z,13.52
2022-10-23T08:39:58.904Z,13.95
2022-10-23T08:43:10.634Z,10.82
2022-10-23T08:46:13.265Z,13.73
2022-10-23T08:49:26.956Z,13.80
2022-10-23T08:52:14.152Z,11.52
2022-10-23T08:54:53.376Z,15.80
2022-10-23T08:57:26.855Z,19.70
2022-10-23T09:00:08.379Z,14.65
2022-10-23T09:02:43.330Z,10.35
2022-10-23T09:05:17.857Z,13.50
2022-10-23T09:07:56.867Z,13.80
2022-10-23T09:10:46.986Z,12.70
2022-10-23T09:13:35.201Z,13.02
2022-10-23T09:16:31.219Z,14.95
2022-10-23T09:21:29.402Z,14.05
2022-10-23T09:23:57.161Z,15.18
2022-10-23T09:26:24.450Z,12.82
2022-10-23T09:29:06.463Z,11.40
2022-10-23T09:31:33.775Z,11.68
2022-10-23T09:34:02.141Z,10.05
2022-10-23T09:36:30.035Z,19.33
2022-10-23T09:38:59.845Z,11.90
2022-10-23T09:41:31.319Z,18.95
2022-10-23T09:44:21.663Z,9.55
2022-10-23T09:46:54.172Z,12.00
2022-10-23T09:49:30.610Z,16.02
2022-10-23T09:52:05.975Z,12.48
2022-10-23T09:54:56.252Z,11.40
2022-10-23T09:57:45.101Z,13.50
2022-10-23T10:00:14.359Z,14.23
2022-10-23T10:02:44.430Z,12.95
2022-10-23T10:05:33.406Z,11.98
2022-10-23T10:08:24.475Z,12.50
2022-10-23T10:10:58.178Z,17.05
2022-10-23T10:13:34.242Z,13.23
2022-10-23T10:16:21.501Z,12.27
2022-10-23T10:18:57.847Z,13.73
2022-10-23T10:22:15.415Z,12.65
2022-10-23T10:24:51.833Z,16.95
2022-10-23T10:27:28.388Z,19.40
2022-10-23T10:30:01.548Z,12.07
2022-10-23T10:32:43.963Z,15.00
2022-10-23T10:35:47.462Z,15.95
2022-10-23T10:38:17.914Z,13.32
2022-10-23T10:41:06.481Z,13.02
2022-10-23T10:43:39.482Z,15.13
2022-10-23T10:46:40.273Z,10.68
2022-10-23T10:49:19.906Z,11.55
2022-10-23T10:52:14.596Z,7.88
2022-10-23T10:55:15.292Z,8.23
2022-10-23T10:57:47.781Z,14.82
2022-10-23T11:00:21.109Z,11.02
2022-10-23T11:03:40.293Z,8.00
2022-10-23T11:06:15.523Z,9.30
2022-10-23T11:11:32.388Z,7.30
2022-10-23T11:14:00.031Z,6.25
2022-10-23T11:16:34.386Z,7.97
2022-10-23T11:19:18.585Z,8.82
2022-10-23T11:22:12.243Z,9.52
2022-10-23T11:24:42.184Z,12.18
2022-10-23T11:27:20.560Z,9.65
2022-10-23T11:30:02.227Z,8.73
2022-10-23T11:32:49.363Z,9.35
2022-10-23T11:35:44.262Z,11.63
2022-10-23T11:38:39.258Z,7.85
2022-10-23T11:41:29.708Z,8.40
2022-10-23T11:44:05.964Z,5.53
2022-10-23T11:46:36.573Z,8.50
2022-10-23T11:49:06.588Z,7.00
2022-10-23T11:51:39.613Z,10.43
2022-10-23T11:54:15.689Z,4.68
2022-10-23T11:57:03.101Z,7.47
2022-10-23T11:59:35.778Z,6.78
2022-10-23T12:02:28.252Z,8.10
2022-10-23T12:04:56.588Z,9.63
2022-10-23T12:07:28.840Z,8.57
2022-10-23T12:10:17.899Z,8.73
2022-10-23T12:12:56.659Z,6.95
2022-10-23T12:15:26.322Z,6.85
2022-10-23T12:17:56.269Z,10.85
2022-10-23T12:20:38.702Z,5.50
2022-10-23T12:23:31.837Z,7.43
2022-10-23T12:26:17.701Z,7.00
2022-10-23T12:29:09.889Z,6.88
2022-10-23T12:32:02.503Z,10.60
2022-10-23T12:34:50.850Z,11.93
2022-10-23T12:37:31.340Z,12.00
2022-10-23T12:39:59.451Z,9.68
2022-10-23T12:42:30.389Z,9.60
2022-10-23T12:45:22.205Z,8.95
2022-10-23T12:47:50.829Z,9.13
2022-10-23T12:50:25.078Z,12.02
2022-10-23T12:52:53.610Z,10.30
2022-10-23T12:55:21.734Z,10.27
2022-10-23T12:57:49.739Z,11.52
2022-10-23T13:00:23.420Z,14.18
2022-10-23T13:03:01.925Z,8.13
2022-10-23T13:05:30.809Z,12.23
2022-10-23T13:07:59.875Z,10.13
2022-10-23T13:10:42.837Z,10.60
2022-10-23T13:13:12.288Z,12.52
2022-10-23T13:15:45.321Z,13.95
2022-10-23T13:18:14.799Z,12.98
2022-10-23T13:20:58.702Z,10.18
2022-10-23T13:23:36.419Z,11.63
2022-10-23T13:26:21.799Z,8.35
2022-10-23T13:28:50.150Z,13.25
2022-10-23T13:31:17.402Z,12.45
2022-10-23T13:34:16.473Z,14.52
2022-10-23T13:36:56.781Z,16.75
2022-10-23T13:39:27.580Z,9.07
2022-10-23T13:41:54.870Z,16.52
2022-10-23T13:44:24.720Z,16.48
2022-10-23T13:46:52.505Z,11.25
2022-10-23T13:49:20.201Z,10.18
2022-10-23T13:51:55.290Z,8.52
2022-10-23T13:56:59.935Z,12.15
2022-10-23T13:59:27.385Z,13.95
2022-10-23T14:01:54.919Z,13.20
2022-10-23T14:04:23.938Z,14.00
2022-10-23T14:06:55.069Z,12.60
2022-10-23T14:09:22.551Z,14.27
2022-10-23T14:11:49.930Z,11.43
2022-10-23T14:14:17.282Z,10.80
2022-10-23T14:16:44.558Z,10.05
2022-10-23T14:19:12.160Z,13.50
2022-10-23T14:21:39.607Z,12.13
2022-10-23T14:24:07.085Z,11.50
2022-10-23T14:26:35.671Z,14.52
2022-10-23T14:29:07.643Z,15.00
2022-10-23T14:31:38.775Z,11.55
2022-10-23T14:34:06.009Z,14.88
2022-10-23T14:36:43.598Z,13.50
2022-10-23T14:39:17.495Z,12.63
2022-10-23T14:41:44.902Z,17.15
2022-10-23T14:44:12.212Z,15.40
2022-10-23T14:46:39.635Z,18.52
2022-10-23T14:49:07.062Z,20.30
2022-10-23T14:51:34.542Z,24.35
2022-10-23T14:54:05.413Z,27.00
2022-10-23T14:56:36.485Z,20.35
2022-10-23T14:59:05.271Z,23.92
2022-10-23T15:01:35.185Z,26.42
2022-10-23T15:04:02.661Z,26.95
2022-10-23T15:06:29.971Z,24.15
2022-10-23T15:08:57.327Z,26.75
2022-10-23T15:11:25.816Z,24.08
2022-10-23T15:13:54.982Z,31.42
2022-10-23T15:16:23.637Z,29.20
2022-10-23T15:18:51.600Z,28.60
2022-10-23T15:21:19.262Z,39.08
2022-10-23T15:23:47.594Z,27.90
2022-10-23T15:26:21.253Z,25.70
2022-10-23T15:28:54.496Z,28.58
2022-10-23T15:31:30.950Z,25.92
2022-10-23T15:33:58.413Z,27.35
2022-10-23T15:36:26.839Z,27.77
2022-10-23T15:38:54.241Z,27.95
2022-10-23T15:41:28.395Z,32.85
2022-10-23T15:43:55.770Z,31.63
2022-10-23T15:46:23.643Z,41.83
2022-10-23T15:48:51.280Z,33.83
2022-10-23T15:51:18.718Z,37.67
2022-10-23T15:53:46.077Z,35.78
2022-10-23T15:56:13.417Z,31.30
2022-10-23T15:58:40.798Z,34.08
2022-10-23T16:01:08.651Z,39.28
2022-10-23T16:03:38.221Z,34.95
2022-10-23T16:06:11.419Z,36.15
2022-10-23T16:08:39.470Z,35.90
2022-10-23T16:11:32.353Z,30.80
2022-10-23T16:14:00.896Z,38.60
2022-10-23T16:16:29.432Z,33.67
2022-10-23T16:19:00.102Z,35.65
2022-10-23T16:21:31.433Z,34.10
2022-10-23T16:24:00.955Z,37.50
2022-10-23T16:26:30.027Z,30.60
2022-10-23T16:29:00.167Z,33.35
2022-10-23T16:31:28.471Z,33.42
2022-10-23T16:33:58.784Z,29.52
2022-10-23T16:36:26.773Z,26.50
2022-10-23T16:39:18.273Z,34.20
2022-10-23T16:42:06.308Z,29.30
2022-10-23T16:44:57.206Z,49.22
2022-10-23T16:47:24.821Z,33.83
2022-10-23T16:49:52.212Z,26.98
2022-10-23T16:52:19.588Z,30.17
2022-10-23T16:54:46.910Z,33.97
2022-10-23T16:57:14.236Z,31.38
2022-10-23T16:59:41.737Z,32.88
2022-10-23T17:02:13.273Z,28.00
2022-10-23T17:04:40.993Z,28.02
2022-10-23T17:07:08.472Z,39.47
2022-10-23T17:09:36.100Z,35.28
2022-10-23T17:12:03.515Z,26.05
2022-10-23T17:14:30.879Z,38.63
2022-10-23T17:17:01.812Z,38.80
2022-10-23T17:19:44.718Z,34.13
2022-10-23T17:22:13.591Z,31.45
2022-10-23T17:24:45.339Z,36.92
2022-10-23T17:27:15.083Z,33.47
2022-10-23T17:29:42.530Z,34.10
2022-10-23T17:32:09.987Z,37.95
2022-10-23T17:34:38.237Z,31.05
2022-10-23T17:37:05.713Z,30.30
2022-10-23T17:39:33.124Z,30.73
2022-10-23T17:42:00.504Z,34.13
2022-10-23T17:44:29.493Z,29.92
2022-10-23T17:46:57.105Z,31.70
2022-10-23T17:49:25.207Z,22.17
2022-10-23T17:51:57.649Z,25.27
2022-10-23T17:54:26.857Z,18.17
2022-10-23T17:56:54.594Z,31.67
2022-10-23T17:59:22.895Z,23.50
2022-10-23T18:01:50.728Z,25.30
2022-10-23T18:04:20.320Z,24.83
2022-10-23T18:06:50.978Z,22.73
2022-10-23T18:09:22.965Z,25.48
2022-10-23T18:11:51.028Z,23.52
2022-10-23T18:14:20.269Z,24.50
2022-10-23T18:16:48.519Z,22.98
2022-10-23T18:19:18.446Z,24.23
2022-10-23T18:21:47.223Z,30.83
2022-10-23T18:24:15.526Z,31.23
2022-10-23T18:26:43.819Z,22.20
2022-10-23T18:29:12.671Z,28.05
2022-10-23T18:31:40.765Z,23.80
2022-10-23T18:34:18.344Z,23.52
2022-10-23T18:36:46.069Z,22.75
2022-10-23T18:39:16.513Z,22.08
2022-10-23T18:41:46.300Z,28.05
2022-10-23T18:44:20.745Z,22.95
2022-10-23T18:46:48.900Z,23.33
2022-10-23T18:49:18.757Z,22.70
2022-10-23T18:51:46.226Z,22.35
2022-10-23T18:54:15.702Z,20.63
2022-10-23T18:56:44.179Z,26.42
2022-10-23T18:59:15.201Z,24.50
2022-10-23T19:01:43.425Z,33.72
2022-10-23T19:04:16.310Z,39.47
2022-10-23T19:06:45.015Z,35.80
2022-10-23T19:09:14.184Z,28.50
2022-10-23T19:11:42.884Z,29.00
2022-10-23T19:14:10.327Z,30.17
2022-10-23T19:16:47.072Z,25.42
2022-10-23T19:19:21.580Z,35.10
2022-10-23T19:21:50.267Z,22.35
2022-10-23T19:24:25.205Z,36.28
2022-10-23T19:26:52.623Z,60.70
2022-10-23T19:29:22.709Z,28.10
2022-10-23T19:31:50.493Z,24.20
2022-10-23T19:34:20.330Z,25.65
2022-10-23T19:36:48.669Z,21.95
2022-10-23T19:39:17.387Z,20.55
2022-10-23T19:41:45.739Z,27.45
2022-10-23T19:44:16.062Z,25.30
2022-10-23T19:46:43.830Z,26.02
2022-10-23T19:49:11.780Z,26.33
2022-10-23T19:51:39.491Z,24.05
2022-10-23T19:54:07.256Z,23.73
2022-10-23T19:56:36.140Z,31.13
2022-10-23T19:59:03.744Z,29.85
2022-10-23T20:01:31.491Z,27.77
2022-10-23T20:03:59.201Z,26.98
2022-10-23T20:06:29.950Z,24.88
2022-10-23T20:08:58.017Z,26.83
2022-10-23T20:11:31.316Z,25.35
2022-10-23T20:13:58.919Z,20.52
2022-10-23T20:16:32.602Z,29.88
2022-10-23T20:19:07.071Z,24.67
2022-10-23T20:21:39.346Z,21.17
2022-10-23T20:24:07.511Z,21.92
2022-10-23T20:26:35.091Z,23.33
2022-10-23T20:29:02.476Z,18.02
2022-10-23T20:31:29.896Z,18.52
2022-10-23T20:33:57.505Z,15.70
2022-10-23T20:36:35.829Z,24.10
2022-10-23T20:39:06.531Z,18.05
2022-10-23T20:41:37.074Z,18.15
2022-10-23T20:44:07.242Z,14.38
2022-10-23T20:46:35.015Z,13.82
2022-10-23T20:49:02.837Z,20.83
2022-10-23T20:51:30.268Z,14.52
2022-10-23T20:53:57.962Z,13.05
2022-10-23T20:56:38.878Z,22.15
2022-10-23T20:59:14.747Z,17.05
2022-10-23T21:01:49.816Z,12.40
2022-10-23T21:04:23.720Z,17.30
2022-10-23T21:07:10.309Z,12.82
2022-10-23T21:09:38.553Z,14.27
2022-10-23T21:12:06.935Z,20.30
2022-10-23T21:14:34.960Z,12.98
2022-10-23T21:17:02.572Z,12.93
2022-10-23T21:19:30.024Z,15.88
2022-10-23T21:21:57.521Z,16.88
2022-10-23T21:24:24.997Z,14.35
2022-10-23T21:26:52.507Z,13.18
2022-10-23T21:29:20.714Z,13.27
2022-10-23T21:31:56.291Z,13.55
2022-10-23T21:34:25.213Z,15.13
2022-10-23T21:39:41.017Z,33.65
2022-10-23T21:42:08.805Z,28.92
2022-10-23T21:44:36.324Z,38.78
2022-10-23T21:47:04.060Z,39.65
2022-10-23T21:49:31.438Z,36.45
2022-10-23T21:51:58.767Z,32.70
2022-10-23T21:54:26.048Z,32.65
2022-10-23T21:56:54.108Z,28.92
2022-10-23T21:59:25.782Z,26.60
2022-10-23T22:01:55.312Z,26.92
2022-10-23T22:04:22.793Z,31.17
2022-10-23T22:06:50.154Z,28.65
2022-10-23T22:09:20.063Z,22.75
2022-10-23T22:11:52.805Z,25.58
2022-10-23T22:14:21.143Z,29.73
2022-10-23T22:16:49.039Z,23.52
2022-10-23T22:19:18.232Z,23.83
2022-10-23T22:21:46.654Z,23.73
2022-10-23T22:24:14.389Z,27.50
2022-10-23T22:26:44.742Z,24.15
2022-10-23T22:29:15.083Z,31.40
2022-10-23T22:31:45.576Z,30.40
2022-10-23T22:34:41.110Z,25.50
2022-10-23T22:37:12.095Z,34.70
2022-10-23T22:39:39.967Z,35.72
2022-10-23T22:42:07.438Z,34.08
2022-10-23T22:44:34.751Z,33.15
2022-10-23T22:47:04.313Z,25.27
2022-10-23T22:49:31.593Z,26.33
2022-10-23T22:51:58.908Z,33.28
2022-10-23T22:54:26.373Z,26.73
2022-10-23T22:56:53.700Z,21.23
2022-10-23T22:59:21.104Z,25.38
2022-10-23T23:01:49.868Z,21.02
2022-10-23T23:07:11.525Z,27.33
2022-10-23T23:09:41.680Z,21.00
2022-10-23T23:12:11.345Z,21.63
2022-10-23T23:14:39.351Z,19.75
2022-10-23T23:17:08.109Z,21.35
2022-10-23T23:19:36.186Z,22.42
2022-10-23T23:22:03.992Z,19.83
2022-10-23T23:24:32.363Z,18.45
2022-10-23T23:26:59.787Z,20.10
2022-10-23T23:29:28.565Z,14.77
2022-10-23T23:31:55.843Z,17.23
2022-10-23T23:34:23.191Z,18.85
2022-10-23T23:36:50.563Z,17.63
2022-10-23T23:39:17.899Z,17.92
2022-10-23T23:41:45.185Z,16.92
2022-10-23T23:44:14.110Z,19.35
2022-10-23T23:46:41.400Z,14.90
2022-10-23T23:49:08.684Z,17.17
2022-10-23T23:51:37.409Z,24.13
2022-10-23T23:54:05.714Z,26.35
2022-10-23T23:56:33.026Z,19.77
2022-10-23T23:59:01.846Z,22.27
